createdAt,value
2019-05-09T00:02:30.469Z,11.37
2019-05-09T00:04:59.646Z,11.37
2019-05-09T00:07:28.832Z,11.57
2019-05-09T00:09:58.127Z,11.31
2019-05-09T00:12:27.316Z,11.31
2019-05-09T00:14:56.489Z,11.33
2019-05-09T00:17:25.662Z,11.41
2019-05-09T00:19:56.489Z,11.26
2019-05-09T00:22:25.667Z,11.27
2019-05-09T00:24:54.853Z,11.25
2019-05-09T00:27:24.087Z,11.25
2019-05-09T00:29:53.385Z,11.26
2019-05-09T00:32:26.887Z,11.33
2019-05-09T00:35:14.251Z,11.33
2019-05-09T00:38:00.379Z,11.64
2019-05-09T00:40:29.581Z,11.64
2019-05-09T00:42:58.751Z,11.54
2019-05-09T00:48:39.998Z,11.72
2019-05-09T00:51:09.196Z,11.62
2019-05-09T00:53:38.387Z,11.64
2019-05-09T00:56:07.557Z,11.74
2019-05-09T00:58:36.743Z,11.63
2019-05-09T01:01:05.979Z,11.59
2019-05-09T01:03:35.165Z,11.53
2019-05-09T01:06:04.560Z,11.47
2019-05-09T01:08:33.884Z,11.42
2019-05-09T01:11:11.419Z,11.66
2019-05-09T01:13:34.334Z,11.46
2019-05-09T01:16:04.708Z,11.35
2019-05-09T01:18:35.165Z,11.35
2019-05-09T01:21:04.515Z,11.47
2019-05-09T01:23:34.451Z,11.46
2019-05-09T01:26:04.160Z,11.53
2019-05-09T01:28:34.066Z,11.53
2019-05-09T01:31:04.211Z,11.34
2019-05-09T01:33:35.139Z,11.38
2019-05-09T01:36:05.309Z,11.26
2019-05-09T01:38:34.488Z,11.26
2019-05-09T01:41:04.128Z,11.23
2019-05-09T01:43:33.877Z,11.27
2019-05-09T01:46:03.929Z,11.11
2019-05-09T01:48:34.072Z,11.24
2019-05-09T01:51:03.584Z,11.14
2019-05-09T01:53:36.758Z,11.31
2019-05-09T01:56:06.033Z,11.31
2019-05-09T01:58:35.272Z,11.31
2019-05-09T02:01:06.236Z,11.31
2019-05-09T02:03:35.485Z,11.16
2019-05-09T02:06:05.514Z,11.16
2019-05-09T02:08:34.803Z,10.96
2019-05-09T02:11:04.426Z,10.96
2019-05-09T02:13:34.047Z,11.08
2019-05-09T02:16:07.517Z,10.96
2019-05-09T02:18:50.428Z,11.08
2019-05-09T02:21:19.668Z,11.03
2019-05-09T02:23:48.825Z,10.97
2019-05-09T02:26:18.019Z,10.97
2019-05-09T02:28:47.202Z,10.98
2019-05-09T02:31:16.766Z,11.11
2019-05-09T02:33:46.116Z,11.11
2019-05-09T02:36:18.705Z,11.06
2019-05-09T02:38:48.662Z,10.98
2019-05-09T02:41:19.582Z,10.98
2019-05-09T02:44:09.065Z,10.92
2019-05-09T02:46:44.349Z,10.73
2019-05-09T02:49:13.533Z,10.76
2019-05-09T02:51:42.701Z,10.76
2019-05-09T02:54:11.875Z,10.75
2019-05-09T02:56:41.064Z,10.89
2019-05-09T02:59:12.066Z,10.67
2019-05-09T03:01:59.021Z,10.67
2019-05-09T03:04:28.587Z,10.66
2019-05-09T03:06:59.684Z,10.66
2019-05-09T03:09:28.968Z,10.88
2019-05-09T03:11:59.252Z,10.88
2019-05-09T03:14:29.152Z,10.82
2019-05-09T03:17:00.260Z,10.82
2019-05-09T03:19:30.111Z,10.77
2019-05-09T03:22:18.778Z,10.91
2019-05-09T03:24:48.783Z,10.68
2019-05-09T03:27:28.938Z,10.66
2019-05-09T03:29:59.887Z,10.75
2019-05-09T03:32:29.885Z,10.75
2019-05-09T03:34:59.124Z,10.59
2019-05-09T03:37:28.310Z,10.59
2019-05-09T03:39:58.130Z,10.53
2019-05-09T03:42:39.691Z,10.53
2019-05-09T03:44:58.330Z,10.65
2019-05-09T03:47:29.153Z,10.87
2019-05-09T03:50:08.985Z,10.60
2019-05-09T03:52:38.153Z,10.60
2019-05-09T03:55:12.251Z,10.66
2019-05-09T03:57:51.829Z,10.66
2019-05-09T04:00:21.347Z,10.73
2019-05-09T04:02:50.528Z,10.78
2019-05-09T04:05:19.706Z,10.78
2019-05-09T04:07:48.877Z,10.60
2019-05-09T04:10:18.183Z,10.52
2019-05-09T04:12:56.289Z,10.75
2019-05-09T04:15:19.097Z,10.90
2019-05-09T04:17:48.427Z,10.75
2019-05-09T04:20:18.618Z,10.75
2019-05-09T04:22:49.097Z,10.53
2019-05-09T04:25:20.079Z,10.57
2019-05-09T04:27:50.897Z,10.57
2019-05-09T04:30:20.067Z,10.61
2019-05-09T04:32:49.236Z,10.52
2019-05-09T04:35:19.467Z,10.52
2019-05-09T04:37:48.640Z,10.61
2019-05-09T04:40:18.294Z,10.65
2019-05-09T04:42:47.570Z,10.65
2019-05-09T04:45:33.143Z,10.72
2019-05-09T04:48:01.208Z,10.72
2019-05-09T04:50:30.362Z,10.46
2019-05-09T04:52:59.551Z,10.59
2019-05-09T04:55:30.409Z,10.48
2019-05-09T04:58:00.198Z,10.51
2019-05-09T05:00:31.147Z,10.64
2019-05-09T05:03:01.255Z,10.67
2019-05-09T05:05:30.456Z,10.68
2019-05-09T05:07:59.669Z,10.68
2019-05-09T05:10:28.921Z,10.83
2019-05-09T05:12:58.057Z,10.83
2019-05-09T05:15:27.672Z,10.68
2019-05-09T05:17:58.268Z,10.86
2019-05-09T05:20:29.325Z,10.86
2019-05-09T05:23:00.065Z,10.88
2019-05-09T05:25:29.172Z,10.95
2019-05-09T05:27:58.351Z,10.95
2019-05-09T05:30:28.366Z,10.95
2019-05-09T05:33:01.961Z,10.92
2019-05-09T05:35:37.573Z,10.92
2019-05-09T05:38:08.562Z,11.07
2019-05-09T05:40:45.121Z,11.07
2019-05-09T05:43:08.953Z,11.08
2019-05-09T05:45:39.904Z,11.08
2019-05-09T05:48:10.716Z,11.09
2019-05-09T05:50:39.900Z,11.04
2019-05-09T05:53:09.002Z,11.13
2019-05-09T05:55:38.199Z,11.15
2019-05-09T05:58:08.564Z,11.15
2019-05-09T06:00:38.012Z,11.13
2019-05-09T06:03:08.733Z,11.06
2019-05-09T06:05:38.563Z,11.07
2019-05-09T06:08:08.316Z,11.07
2019-05-09T06:10:38.051Z,11.22
2019-05-09T06:13:07.965Z,11.32
2019-05-09T06:15:38.122Z,11.40
2019-05-09T06:18:07.966Z,11.19
2019-05-09T06:20:38.538Z,11.27
2019-05-09T06:23:08.594Z,11.31
2019-05-09T06:25:38.974Z,11.08
2019-05-09T06:28:08.323Z,11.14
2019-05-09T06:30:40.952Z,11.03
2019-05-09T06:33:09.256Z,11.16
2019-05-09T06:35:58.664Z,11.16
2019-05-09T06:38:28.261Z,11.20
2019-05-09T06:40:58.248Z,11.20
2019-05-09T06:43:35.000Z,11.26
2019-05-09T06:46:20.142Z,11.24
2019-05-09T06:48:49.339Z,11.42
2019-05-09T06:51:21.212Z,11.49
2019-05-09T06:53:49.405Z,11.67
2019-05-09T06:56:18.585Z,12.18
2019-05-09T06:58:48.184Z,12.59
2019-05-09T07:01:19.087Z,12.55
2019-05-09T07:04:05.111Z,12.84
2019-05-09T07:06:38.743Z,13.10
2019-05-09T07:09:17.509Z,13.45
2019-05-09T07:11:48.672Z,13.94
2019-05-09T07:14:32.634Z,13.91
2019-05-09T07:17:00.055Z,14.13
2019-05-09T07:19:29.300Z,14.49
2019-05-09T07:22:02.945Z,14.98
2019-05-09T07:24:34.691Z,15.10
2019-05-09T07:27:03.886Z,15.09
2019-05-09T07:29:34.977Z,15.37
2019-05-09T07:32:08.707Z,15.55
2019-05-09T07:34:41.976Z,15.42
2019-05-09T07:37:11.166Z,15.50
2019-05-09T07:39:40.355Z,15.38
2019-05-09T07:42:09.532Z,15.34
2019-05-09T07:44:48.437Z,15.81
2019-05-09T07:47:09.592Z,16.09
2019-05-09T07:49:39.685Z,16.26
2019-05-09T07:52:10.390Z,15.24
2019-05-09T07:54:39.831Z,15.34
2019-05-09T07:57:09.092Z,14.43
2019-05-09T07:59:38.920Z,14.43
2019-05-09T08:02:08.858Z,14.69
2019-05-09T08:04:38.707Z,14.70
2019-05-09T08:07:08.559Z,14.71
2019-05-09T08:09:38.743Z,14.53
2019-05-09T08:12:08.151Z,14.71
2019-05-09T08:14:37.886Z,14.80
2019-05-09T08:17:08.556Z,14.21
2019-05-09T08:19:38.203Z,14.38
2019-05-09T08:22:08.118Z,14.20
2019-05-09T08:24:38.114Z,13.92
2019-05-09T08:27:08.506Z,14.34
2019-05-09T08:29:38.690Z,14.50
2019-05-09T08:32:08.027Z,14.18
2019-05-09T08:34:37.922Z,14.20
2019-05-09T08:37:08.116Z,14.58
2019-05-09T08:39:38.308Z,14.69
2019-05-09T08:42:08.688Z,14.82
2019-05-09T08:44:41.909Z,15.08
2019-05-09T08:47:08.976Z,15.15
2019-05-09T08:49:47.350Z,14.91
2019-05-09T08:52:19.718Z,15.14
2019-05-09T08:54:57.953Z,15.28
2019-05-09T08:57:28.847Z,15.22
2019-05-09T08:59:58.901Z,15.25
2019-05-09T09:02:28.501Z,15.26
2019-05-09T09:04:58.470Z,15.04
2019-05-09T09:07:29.660Z,14.64
2019-05-09T09:09:58.610Z,15.01
2019-05-09T09:12:34.037Z,15.06
2019-05-09T09:14:58.860Z,15.17
2019-05-09T09:17:28.157Z,15.34
2019-05-09T09:19:58.330Z,15.28
2019-05-09T09:22:28.526Z,15.35
2019-05-09T09:24:58.609Z,15.54
2019-05-09T09:27:29.186Z,15.59
2019-05-09T09:30:00.261Z,15.55
2019-05-09T09:32:29.234Z,15.56
2019-05-09T09:34:58.846Z,15.53
2019-05-09T09:37:43.800Z,15.50
2019-05-09T09:39:58.925Z,15.12
2019-05-09T09:42:28.398Z,14.90
2019-05-09T09:44:58.515Z,15.16
2019-05-09T09:47:28.575Z,15.22
2019-05-09T09:49:59.526Z,15.25
2019-05-09T09:52:30.635Z,15.26
2019-05-09T09:54:59.924Z,15.29
2019-05-09T09:57:29.114Z,15.00
2019-05-09T09:59:59.979Z,15.20
2019-05-09T10:02:37.847Z,14.79
2019-05-09T10:05:08.058Z,14.87
2019-05-09T10:07:38.418Z,15.08
2019-05-09T10:10:08.347Z,14.70
2019-05-09T10:12:43.667Z,14.98
2019-05-09T10:15:19.538Z,15.20
2019-05-09T10:17:52.817Z,15.23
2019-05-09T10:20:28.990Z,15.40
2019-05-09T10:23:11.223Z,15.35
2019-05-09T10:25:31.424Z,15.29
2019-05-09T10:28:00.631Z,14.95
2019-05-09T10:30:31.308Z,14.96
2019-05-09T10:33:00.499Z,14.99
2019-05-09T10:35:29.748Z,15.08
2019-05-09T10:37:59.967Z,14.90
2019-05-09T10:40:29.128Z,14.76
2019-05-09T10:43:08.127Z,14.84
2019-05-09T10:45:41.141Z,15.02
2019-05-09T10:48:10.387Z,14.95
2019-05-09T10:50:44.571Z,14.93
2019-05-09T10:53:10.456Z,14.88
2019-05-09T10:55:39.677Z,15.05
2019-05-09T10:58:08.864Z,15.22
2019-05-09T11:00:40.058Z,15.36
2019-05-09T11:03:09.146Z,15.47
2019-05-09T11:05:38.320Z,15.52
2019-05-09T11:08:08.323Z,15.41
2019-05-09T11:10:39.653Z,15.35
2019-05-09T11:13:08.467Z,15.31
2019-05-09T11:15:37.775Z,15.53
2019-05-09T11:18:08.076Z,15.63
2019-05-09T11:20:38.946Z,15.50
2019-05-09T11:23:08.370Z,15.54
2019-05-09T11:25:38.188Z,15.47
2019-05-09T11:28:11.450Z,15.53
2019-05-09T11:30:38.705Z,15.54
2019-05-09T11:33:27.814Z,15.68
2019-05-09T11:35:58.117Z,15.57
2019-05-09T11:38:34.096Z,15.58
2019-05-09T11:40:58.420Z,15.55
2019-05-09T11:43:29.908Z,15.57
2019-05-09T11:45:58.960Z,15.58
2019-05-09T11:48:45.973Z,15.50
2019-05-09T11:51:20.379Z,15.72
2019-05-09T11:53:48.695Z,15.92
2019-05-09T11:56:18.296Z,16.05
2019-05-09T11:58:48.298Z,16.08
2019-05-09T12:01:18.948Z,16.04
2019-05-09T12:03:52.049Z,16.02
2019-05-09T12:06:20.371Z,15.91
2019-05-09T12:08:50.892Z,15.92
2019-05-09T12:11:20.213Z,15.94
2019-05-09T12:13:49.422Z,15.84
2019-05-09T12:16:18.937Z,15.90
2019-05-09T12:18:49.030Z,16.07
2019-05-09T12:21:19.447Z,16.25
2019-05-09T12:23:49.454Z,16.28
2019-05-09T12:26:19.086Z,16.32
2019-05-09T12:28:48.746Z,16.18
2019-05-09T12:31:18.521Z,16.33
2019-05-09T12:33:48.587Z,16.53
2019-05-09T12:36:19.920Z,16.66
2019-05-09T12:38:50.221Z,16.62
2019-05-09T12:41:19.608Z,16.65
2019-05-09T12:43:48.932Z,16.68
2019-05-09T12:46:40.209Z,16.68
2019-05-09T12:49:09.437Z,16.66
2019-05-09T12:51:38.638Z,16.63
2019-05-09T12:54:08.508Z,16.55
2019-05-09T12:56:38.601Z,16.46
2019-05-09T12:59:08.811Z,16.37
2019-05-09T13:01:40.588Z,16.30
2019-05-09T13:04:09.740Z,16.31
2019-05-09T13:06:58.695Z,16.32
2019-05-09T13:09:28.686Z,16.44
2019-05-09T13:11:57.979Z,16.41
2019-05-09T13:14:28.595Z,16.36
2019-05-09T13:17:07.912Z,16.30
2019-05-09T13:19:38.340Z,16.38
2019-05-09T13:22:08.312Z,16.34
2019-05-09T13:24:37.917Z,16.33
2019-05-09T13:27:07.939Z,16.37
2019-05-09T13:29:38.169Z,16.38
2019-05-09T13:32:08.724Z,16.41
2019-05-09T13:34:38.301Z,16.44
2019-05-09T13:37:09.072Z,16.52
2019-05-09T13:39:39.763Z,16.54
2019-05-09T13:42:09.310Z,16.51
2019-05-09T13:44:41.342Z,16.53
2019-05-09T13:47:10.945Z,16.47
2019-05-09T13:49:40.478Z,16.51
2019-05-09T13:52:10.301Z,16.50
2019-05-09T13:54:39.515Z,16.45
2019-05-09T13:57:08.923Z,16.51
2019-05-09T13:59:38.171Z,16.59
2019-05-09T14:02:07.426Z,16.51
2019-05-09T14:04:39.580Z,16.49
2019-05-09T14:07:08.336Z,16.56
2019-05-09T14:09:38.617Z,16.62
2019-05-09T14:12:09.320Z,16.63
2019-05-09T14:14:38.931Z,16.59
2019-05-09T14:17:08.931Z,16.52
2019-05-09T14:19:45.476Z,16.48
2019-05-09T14:22:09.883Z,16.49
2019-05-09T14:24:39.151Z,16.47
2019-05-09T14:27:08.423Z,16.41
2019-05-09T14:29:38.388Z,16.47
2019-05-09T14:32:07.738Z,16.45
2019-05-09T14:34:38.197Z,16.56
2019-05-09T14:37:09.516Z,16.60
2019-05-09T14:39:54.539Z,16.59
2019-05-09T14:42:09.626Z,16.61
2019-05-09T14:44:38.802Z,16.61
2019-05-09T14:47:08.191Z,16.60
2019-05-09T14:49:43.226Z,16.59
2019-05-09T14:52:08.404Z,16.56
2019-05-09T14:54:39.213Z,16.56
2019-05-09T14:57:09.653Z,16.55
2019-05-09T14:59:39.060Z,16.47
2019-05-09T15:02:09.290Z,16.56
2019-05-09T15:04:38.805Z,16.60
2019-05-09T15:07:08.097Z,16.74
2019-05-09T15:09:37.274Z,16.77
2019-05-09T15:12:06.475Z,16.74
2019-05-09T15:14:38.167Z,16.71
2019-05-09T15:17:08.784Z,16.71
2019-05-09T15:19:38.547Z,16.75
2019-05-09T15:22:08.509Z,16.77
2019-05-09T15:24:38.790Z,16.78
2019-05-09T15:27:08.204Z,16.79
2019-05-09T15:29:39.131Z,16.77
2019-05-09T15:32:12.103Z,16.70
2019-05-09T15:34:39.153Z,16.74
2019-05-09T15:37:08.893Z,16.80
2019-05-09T15:39:39.030Z,16.81
2019-05-09T15:42:08.191Z,16.77
2019-05-09T15:44:37.389Z,16.77
2019-05-09T15:47:23.324Z,16.77
2019-05-09T15:49:52.517Z,16.82
2019-05-09T15:52:21.737Z,16.78
2019-05-09T15:54:52.330Z,16.76
2019-05-09T15:57:21.524Z,16.76
2019-05-09T15:59:50.775Z,16.76
2019-05-09T16:02:22.810Z,16.70
2019-05-09T16:04:53.013Z,16.64
2019-05-09T16:07:22.182Z,16.66
2019-05-09T16:09:51.363Z,16.64
2019-05-09T16:12:23.281Z,16.62
2019-05-09T16:14:52.507Z,16.69
2019-05-09T16:17:21.747Z,16.69
2019-05-09T16:19:50.982Z,16.67
2019-05-09T16:22:20.168Z,16.70
2019-05-09T16:24:49.387Z,16.64
2019-05-09T16:27:18.896Z,16.68
2019-05-09T16:29:48.687Z,16.69
2019-05-09T16:32:18.201Z,16.66
2019-05-09T16:34:47.376Z,16.55
2019-05-09T16:37:16.568Z,16.62
2019-05-09T16:39:47.644Z,16.62
2019-05-09T16:42:27.580Z,16.58
2019-05-09T16:44:59.379Z,16.51
2019-05-09T16:47:28.407Z,16.45
2019-05-09T16:49:58.054Z,16.47
2019-05-09T16:52:27.455Z,16.50
2019-05-09T16:54:58.560Z,16.47
2019-05-09T16:57:27.838Z,16.44
2019-05-09T16:59:57.029Z,16.46
2019-05-09T17:02:28.709Z,16.38
2019-05-09T17:04:58.046Z,16.24
2019-05-09T17:07:27.825Z,16.12
2019-05-09T17:09:57.759Z,15.91
2019-05-09T17:12:27.098Z,15.75
2019-05-09T17:14:59.451Z,15.83
2019-05-09T17:17:27.858Z,15.88
2019-05-09T17:19:57.333Z,15.90
2019-05-09T17:22:44.471Z,15.98
2019-05-09T17:25:13.705Z,15.86
2019-05-09T17:27:42.966Z,15.79
2019-05-09T17:30:12.543Z,15.65
2019-05-09T17:32:41.945Z,15.68
2019-05-09T17:35:13.883Z,15.55
2019-05-09T17:37:43.076Z,15.47
2019-05-09T17:40:15.807Z,15.48
2019-05-09T17:42:43.310Z,15.56
2019-05-09T17:45:13.152Z,15.66
2019-05-09T17:47:42.394Z,15.60
2019-05-09T17:50:11.896Z,15.33
2019-05-09T17:52:41.081Z,15.41
2019-05-09T17:55:10.500Z,15.40
2019-05-09T17:57:39.700Z,15.45
2019-05-09T18:00:10.526Z,15.53
2019-05-09T18:02:39.718Z,15.43
2019-05-09T18:05:09.013Z,15.45
2019-05-09T18:07:54.201Z,15.37
2019-05-09T18:10:23.422Z,15.46
2019-05-09T18:12:52.756Z,15.47
2019-05-09T18:15:23.260Z,15.48
2019-05-09T18:17:55.589Z,15.38
2019-05-09T18:20:39.033Z,15.33
2019-05-09T18:23:08.499Z,15.32
2019-05-09T18:25:41.770Z,15.36
2019-05-09T18:28:11.032Z,15.35
2019-05-09T18:30:40.210Z,15.38
2019-05-09T18:33:11.060Z,15.32
2019-05-09T18:35:43.243Z,15.33
2019-05-09T18:38:19.403Z,15.30
2019-05-09T18:40:48.605Z,15.30
2019-05-09T18:43:19.403Z,15.35
2019-05-09T18:45:50.575Z,14.83
2019-05-09T18:48:19.760Z,14.97
2019-05-09T18:50:49.106Z,14.70
2019-05-09T18:53:18.410Z,14.74
2019-05-09T18:55:47.577Z,14.82
2019-05-09T18:58:16.787Z,14.88
2019-05-09T19:00:46.025Z,14.96
2019-05-09T19:03:15.224Z,14.58
2019-05-09T19:05:44.392Z,14.57
2019-05-09T19:08:13.598Z,14.63
2019-05-09T19:10:42.777Z,14.64
2019-05-09T19:13:14.085Z,14.32
2019-05-09T19:15:44.964Z,14.34
2019-05-09T19:18:21.432Z,14.49
2019-05-09T19:20:52.297Z,14.61
2019-05-09T19:23:21.474Z,14.64
2019-05-09T19:25:50.655Z,14.28
2019-05-09T19:28:23.674Z,14.13
2019-05-09T19:30:51.776Z,14.32
2019-05-09T19:33:21.314Z,14.42
2019-05-09T19:35:50.521Z,14.16
2019-05-09T19:38:19.706Z,13.87
2019-05-09T19:40:48.918Z,13.75
2019-05-09T19:43:18.164Z,13.79
2019-05-09T19:45:47.383Z,13.74
2019-05-09T19:48:16.586Z,13.70
2019-05-09T19:50:45.775Z,13.64
2019-05-09T19:53:14.944Z,13.83
2019-05-09T19:55:44.132Z,13.83
2019-05-09T19:58:13.478Z,14.04
2019-05-09T20:00:42.687Z,13.88
2019-05-09T20:03:11.872Z,13.58
2019-05-09T20:05:41.052Z,13.61
2019-05-09T20:08:10.237Z,13.66
2019-05-09T20:10:57.530Z,13.45
2019-05-09T20:13:28.361Z,13.42
2019-05-09T20:15:57.824Z,13.21
2019-05-09T20:18:27.034Z,13.33
2019-05-09T20:20:56.506Z,13.27
2019-05-09T20:23:25.769Z,13.38
2019-05-09T20:25:54.928Z,13.36
2019-05-09T20:28:24.392Z,13.43
2019-05-09T20:30:55.239Z,13.24
2019-05-09T20:33:24.444Z,13.37
2019-05-09T20:35:53.605Z,13.09
2019-05-09T20:38:22.980Z,13.21
2019-05-09T20:40:52.318Z,13.10
2019-05-09T20:43:21.751Z,13.21
2019-05-09T20:45:51.369Z,12.94
2019-05-09T20:48:20.767Z,13.13
2019-05-09T20:50:50.145Z,13.16
2019-05-09T20:53:19.522Z,13.29
2019-05-09T20:55:48.898Z,13.29
2019-05-09T20:58:18.286Z,13.32
2019-05-09T21:00:47.798Z,13.29
2019-05-09T21:03:17.171Z,13.39
2019-05-09T21:05:47.981Z,13.34
2019-05-09T21:08:17.343Z,13.29
2019-05-09T21:10:46.706Z,13.21
2019-05-09T21:13:16.160Z,13.28
2019-05-09T21:15:45.518Z,13.32
2019-05-09T21:18:14.950Z,13.10
2019-05-09T21:20:44.372Z,13.36
2019-05-09T21:23:24.250Z,13.24
2019-05-09T21:25:44.873Z,13.06
2019-05-09T21:28:14.261Z,13.06
2019-05-09T21:30:45.156Z,13.13
2019-05-09T21:33:14.552Z,13.08
2019-05-09T21:35:43.772Z,12.92
2019-05-09T21:38:12.942Z,13.08
2019-05-09T21:40:42.212Z,13.15
2019-05-09T21:43:11.402Z,12.88
2019-05-09T21:45:43.137Z,12.83
2019-05-09T21:48:12.334Z,12.84
2019-05-09T21:50:41.521Z,12.89
2019-05-09T21:53:10.757Z,12.86
2019-05-09T21:55:39.938Z,12.99
2019-05-09T21:58:09.138Z,12.92
2019-05-09T22:00:40.959Z,13.03
2019-05-09T22:03:10.317Z,13.04
2019-05-09T22:05:39.544Z,13.01
2019-05-09T22:08:08.991Z,13.13
2019-05-09T22:10:38.165Z,13.28
2019-05-09T22:13:07.353Z,13.45
2019-05-09T22:15:36.597Z,13.04
2019-05-09T22:18:05.927Z,13.07
2019-05-09T22:20:35.153Z,13.16
2019-05-09T22:23:06.394Z,13.03
2019-05-09T22:25:35.213Z,12.85
2019-05-09T22:28:04.563Z,12.95
2019-05-09T22:30:33.788Z,12.80
2019-05-09T22:33:02.967Z,12.93
2019-05-09T22:35:32.159Z,12.90
2019-05-09T22:38:01.369Z,13.15
2019-05-09T22:40:30.572Z,13.16
2019-05-09T22:42:59.765Z,13.25
2019-05-09T22:45:28.950Z,13.35
2019-05-09T22:47:59.154Z,13.30
2019-05-09T22:50:28.420Z,13.18
2019-05-09T22:52:57.585Z,13.26
2019-05-09T22:55:26.786Z,13.12
2019-05-09T22:57:55.946Z,13.12
2019-05-09T23:00:25.292Z,12.91
2019-05-09T23:02:54.471Z,12.56
2019-05-09T23:05:23.777Z,12.56
2019-05-09T23:07:52.981Z,12.32
2019-05-09T23:10:22.158Z,12.32
2019-05-09T23:12:51.381Z,12.31
2019-05-09T23:15:20.719Z,12.37
2019-05-09T23:17:49.891Z,12.45
2019-05-09T23:20:37.136Z,12.42
2019-05-09T23:23:22.901Z,12.50
2019-05-09T23:25:52.156Z,12.50
2019-05-09T23:28:21.342Z,12.43
2019-05-09T23:30:52.248Z,12.45
2019-05-09T23:33:22.198Z,12.54
2019-05-09T23:35:51.411Z,12.38
2019-05-09T23:38:20.920Z,12.41
2019-05-09T23:40:50.191Z,12.34
2019-05-09T23:43:19.383Z,12.41
2019-05-09T23:45:48.577Z,12.45
2019-05-09T23:48:17.759Z,12.42
2019-05-09T23:50:46.945Z,12.51
2019-05-09T23:53:20.851Z,12.59
2019-05-09T23:56:07.427Z,12.39
2019-05-09T23:58:54.612Z,12.41
